Mud Lake, Idaho
Current Conditions -  °F | °C
As of 6:53 PM on Friday 19 Dec 2014 (Local Time) from KIDA Reporting Station
Haze Haze  
Wind Chill: 24°   Ceiling: 600
Heat Index: 34°   Visibility: 6mi
Dew Point: 32°   Wind: 16mph
Humidity: 92%   Direction: 200°SSW
Pressure: 30.06"   Gusts: 22mph
Location:  43.8119°N, 112.46°W
Report Text: KIDA 200153Z 20014G19KT 6SM BR OVC006 01/00 A3006 RMK AO2 SNE46 SLP201 P0000 T00110000
Loading
Personal Weather Stations






























Interactive Weather Map New forecast layout! Learn more

10-Day Weather Forecast

Advertisements
Track Severe Weather on mobile